Time;durP1;ratioP1;P1;durP2;ratioP2;P2;SDS_P1;SDS_P2;PMS_P1;PMS_P2;Temp;Humidity;BMP_temperature;BMP_pressure;BME280_temperature;BME280_humidity;BME280_pressure;Samples;Min_cycle;Max_cycle;Signal;HPM_P1;HPM_P2
2022/06/16 00:00:40;;;;;;;5.07;3.40;;;;;;;;;;5094936;28;20205;-37
2022/06/16 00:03:08;;;;;;;4.78;3.17;;;;;;;;;;5091977;28;20319;-35
2022/06/16 00:05:36;;;;;;;3.35;3.05;;;;;;;;;;5094208;28;20213;-39
2022/06/16 00:08:04;;;;;;;4.97;3.75;;;;;;;;;;5095295;28;20219;-32
2022/06/16 00:10:32;;;;;;;3.40;3.10;;;;;;;;;;5092651;28;20201;-34
2022/06/16 00:12:59;;;;;;;3.30;3.10;;;;;;;;;;5087558;28;20204;-35
2022/06/16 00:15:28;;;;;;;2.95;2.55;;;;;;;;;;5093728;28;20287;-40
2022/06/16 00:17:55;;;;;;;3.17;2.67;;;;;;;;;;5081963;28;20224;-32
2022/06/16 00:20:22;;;;;;;2.70;2.50;;;;;;;;;;5094381;28;20213;-36
2022/06/16 00:22:49;;;;;;;3.78;2.80;;;;;;;;;;5093121;28;20220;-36
2022/06/16 00:25:17;;;;;;;3.28;2.95;;;;;;;;;;5091905;28;20208;-31
2022/06/16 00:27:45;;;;;;;4.05;2.92;;;;;;;;;;5086272;28;20243;-35
2022/06/16 00:30:14;;;;;;;3.35;2.95;;;;;;;;;;5082067;28;20215;-34
2022/06/16 00:32:42;;;;;;;3.42;3.13;;;;;;;;;;5087736;28;20307;-32
2022/06/16 00:35:10;;;;;;;4.20;2.83;;;;;;;;;;5091043;28;20207;-38
2022/06/16 00:37:37;;;;;;;4.20;3.22;;;;;;;;;;5091001;28;20251;-33
2022/06/16 00:40:04;;;;;;;2.90;2.70;;;;;;;;;;5090351;28;20215;-37
2022/06/16 00:42:31;;;;;;;3.63;3.33;;;;;;;;;;5080072;28;20221;-31
2022/06/16 00:45:00;;;;;;;3.65;3.08;;;;;;;;;;5084761;28;20204;-32
2022/06/16 00:47:28;;;;;;;3.85;3.17;;;;;;;;;;5081134;28;20231;-35
2022/06/16 00:49:56;;;;;;;3.92;3.35;;;;;;;;;;5090314;28;20196;-36
2022/06/16 00:52:25;;;;;;;4.50;3.47;;;;;;;;;;5091293;28;20197;-34
2022/06/16 00:54:54;;;;;;;5.93;3.65;;;;;;;;;;5087579;28;20219;-39
2022/06/16 00:57:23;;;;;;;3.90;3.50;;;;;;;;;;5087069;28;20231;-33
2022/06/16 00:59:50;;;;;;;3.60;3.30;;;;;;;;;;5091763;28;20204;-37
2022/06/16 01:02:19;;;;;;;3.38;3.03;;;;;;;;;;5079181;28;20228;-38
2022/06/16 01:04:51;;;;;;;3.70;2.92;;;;;;;;;;5089601;28;20291;-36
2022/06/16 01:07:20;;;;;;;6.88;3.13;;;;;;;;;;5092296;28;20365;-35
2022/06/16 01:09:47;;;;;;;4.45;3.33;;;;;;;;;;5088649;28;20203;-35
2022/06/16 01:15:16;;;;;;;3.38;3.17;;;;;;;;;;5090675;28;20215;-36
2022/06/16 01:17:50;;;;;;;3.88;3.20;;;;;;;;;;5082717;28;20256;-36
2022/06/16 01:20:21;;;;;;;3.45;3.15;;;;;;;;;;5090605;28;20218;-34
2022/06/16 01:23:06;;;;;;;4.82;3.00;;;;;;;;;;5090050;28;20217;-34
2022/06/16 01:25:39;;;;;;;4.40;3.10;;;;;;;;;;5045259;28;20227;-37
2022/06/16 01:28:16;;;;;;;4.57;2.67;;;;;;;;;;5090037;28;20196;-37
2022/06/16 01:30:48;;;;;;;3.97;3.15;;;;;;;;;;5089142;28;20207;-37
2022/06/16 01:33:21;;;;;;;3.50;3.20;;;;;;;;;;5086203;28;20414;-30
2022/06/16 01:35:52;;;;;;;3.67;3.38;;;;;;;;;;5089617;28;20208;-35
2022/06/16 01:38:21;;;;;;;3.83;3.10;;;;;;;;;;5090719;28;20200;-34
2022/06/16 01:40:51;;;;;;;4.45;3.47;;;;;;;;;;5086513;28;20219;-35
2022/06/16 01:43:26;;;;;;;5.95;3.40;;;;;;;;;;5074463;28;20225;-32
2022/06/16 01:45:58;;;;;;;3.70;2.80;;;;;;;;;;5089064;28;20227;-42
2022/06/16 01:48:26;;;;;;;3.65;3.20;;;;;;;;;;5078126;28;20369;-34
2022/06/16 01:50:55;;;;;;;3.77;3.07;;;;;;;;;;5090108;28;20204;-39
2022/06/16 01:53:23;;;;;;;4.10;3.33;;;;;;;;;;5090244;28;20231;-31
2022/06/16 01:55:53;;;;;;;3.42;3.20;;;;;;;;;;5087263;28;20307;-35
2022/06/16 01:58:23;;;;;;;4.80;3.20;;;;;;;;;;5075786;28;20215;-39
2022/06/16 02:00:52;;;;;;;3.17;2.90;;;;;;;;;;5088916;28;20204;-37
2022/06/16 02:05:51;;;;;;;3.22;3.00;;;;;;;;;;5010269;28;20222;-38
2022/06/16 02:08:20;;;;;;;3.40;3.00;;;;;;;;;;5015071;28;20203;-34
2022/06/16 02:10:49;;;;;;;3.42;3.13;;;;;;;;;;5006196;28;20203;-36
2022/06/16 02:13:19;;;;;;;3.00;2.80;;;;;;;;;;5007927;28;20506;-35
2022/06/16 02:15:52;;;;;;;3.73;3.40;;;;;;;;;;5019362;28;20218;-36
2022/06/16 02:18:21;;;;;;;3.63;2.70;;;;;;;;;;5000506;28;20214;-40
2022/06/16 02:20:52;;;;;;;3.27;2.97;;;;;;;;;;5009576;28;20207;-31
2022/06/16 02:23:19;;;;;;;4.50;3.03;;;;;;;;;;5009437;28;20227;-39
2022/06/16 02:25:48;;;;;;;5.90;3.80;;;;;;;;;;5006377;28;20206;-39
2022/06/16 02:28:15;;;;;;;4.83;3.23;;;;;;;;;;4996867;28;20211;-35
2022/06/16 02:30:48;;;;;;;3.43;3.10;;;;;;;;;;5009772;28;20207;-38
2022/06/16 02:33:18;;;;;;;4.47;3.50;;;;;;;;;;5001307;28;20203;-37
2022/06/16 02:35:51;;;;;;;4.40;4.00;;;;;;;;;;5000573;28;20203;-38
2022/06/16 02:38:28;;;;;;;3.60;3.30;;;;;;;;;;5006599;28;20243;-38
2022/06/16 02:41:08;;;;;;;4.33;3.40;;;;;;;;;;4998795;28;20209;-36
2022/06/16 02:43:45;;;;;;;3.93;3.43;;;;;;;;;;5014476;28;20229;-31
2022/06/16 02:46:15;;;;;;;5.53;3.40;;;;;;;;;;5010026;28;20227;-34
2022/06/16 02:48:46;;;;;;;5.37;3.47;;;;;;;;;;5006283;28;20221;-36
2022/06/16 02:51:16;;;;;;;3.87;3.03;;;;;;;;;;5009431;28;20203;-37
2022/06/16 02:53:50;;;;;;;3.63;3.33;;;;;;;;;;5027476;28;20225;-36
2022/06/16 02:56:22;;;;;;;3.97;3.67;;;;;;;;;;5023996;28;20218;-36
2022/06/16 02:58:51;;;;;;;6.07;3.23;;;;;;;;;;5010697;28;20218;-39
2022/06/16 03:01:19;;;;;;;3.90;3.60;;;;;;;;;;5015036;28;20207;-37
2022/06/16 03:04:01;;;;;;;4.33;3.50;;;;;;;;;;5009763;28;20222;-36
2022/06/16 03:06:28;;;;;;;3.60;3.27;;;;;;;;;;5013142;28;20230;-37
2022/06/16 03:08:58;;;;;;;3.73;3.03;;;;;;;;;;5009666;28;20211;-35
2022/06/16 03:11:25;;;;;;;4.57;3.47;;;;;;;;;;5009133;28;20213;-40
2022/06/16 03:13:53;;;;;;;4.40;3.50;;;;;;;;;;5013320;28;20239;-34
2022/06/16 03:16:21;;;;;;;3.00;2.80;;;;;;;;;;5028318;28;20229;-35
2022/06/16 03:18:48;;;;;;;3.43;3.13;;;;;;;;;;5015426;28;20214;-38
2022/06/16 03:21:15;;;;;;;3.37;3.07;;;;;;;;;;5025708;28;20213;-35
2022/06/16 03:23:42;;;;;;;3.57;3.13;;;;;;;;;;5032501;28;20230;-33
2022/06/16 03:26:11;;;;;;;3.60;3.30;;;;;;;;;;5015280;28;20230;-37
2022/06/16 03:28:38;;;;;;;3.90;3.60;;;;;;;;;;5020989;28;20217;-34
2022/06/16 03:31:05;;;;;;;4.00;3.60;;;;;;;;;;5013571;28;20217;-37
2022/06/16 03:33:32;;;;;;;4.47;3.27;;;;;;;;;;5012142;28;20221;-38
2022/06/16 03:36:00;;;;;;;4.57;3.47;;;;;;;;;;5026926;28;20233;-38
2022/06/16 03:38:30;;;;;;;3.60;3.30;;;;;;;;;;5035026;28;20209;-35
2022/06/16 03:40:57;;;;;;;4.40;3.40;;;;;;;;;;5035545;28;20186;-38
2022/06/16 03:43:25;;;;;;;6.50;3.60;;;;;;;;;;5010905;28;20226;-37
2022/06/16 03:45:53;;;;;;;4.03;3.57;;;;;;;;;;5014576;28;20293;-36
2022/06/16 03:48:20;;;;;;;4.97;3.83;;;;;;;;;;5004911;28;20227;-38
2022/06/16 03:50:47;;;;;;;6.07;3.93;;;;;;;;;;5018369;28;20207;-33
2022/06/16 03:53:14;;;;;;;3.77;3.47;;;;;;;;;;5015069;28;20419;-35
2022/06/16 03:55:41;;;;;;;3.53;3.20;;;;;;;;;;5012512;28;20214;-37
2022/06/16 03:58:09;;;;;;;5.43;3.70;;;;;;;;;;5008703;28;20202;-36
2022/06/16 04:00:37;;;;;;;5.67;3.23;;;;;;;;;;5014903;28;20225;-34
2022/06/16 04:05:51;;;;;;;4.93;3.47;;;;;;;;;;5008428;28;20233;-35
2022/06/16 04:08:19;;;;;;;5.23;3.37;;;;;;;;;;5034139;28;20209;-32
2022/06/16 04:10:47;;;;;;;4.23;3.13;;;;;;;;;;5010372;28;20273;-35
2022/06/16 04:13:14;;;;;;;3.97;3.33;;;;;;;;;;5025900;28;20206;-33
2022/06/16 04:15:43;;;;;;;3.70;3.40;;;;;;;;;;5032186;28;20199;-35
2022/06/16 04:18:10;;;;;;;4.67;3.37;;;;;;;;;;5014844;28;20205;-37
2022/06/16 04:20:38;;;;;;;5.20;3.30;;;;;;;;;;5026041;28;20215;-35
2022/06/16 04:23:05;;;;;;;4.50;3.47;;;;;;;;;;5020623;28;20227;-37
2022/06/16 04:25:34;;;;;;;3.57;3.27;;;;;;;;;;5020667;28;20217;-35
2022/06/16 04:28:02;;;;;;;3.93;3.63;;;;;;;;;;5015914;28;20203;-36
2022/06/16 04:30:29;;;;;;;4.30;3.90;;;;;;;;;;5014674;28;20203;-35
2022/06/16 04:32:58;;;;;;;5.03;3.17;;;;;;;;;;5010271;28;20205;-36
2022/06/16 04:35:25;;;;;;;4.63;3.53;;;;;;;;;;5017976;28;20305;-35
2022/06/16 04:37:53;;;;;;;4.93;3.57;;;;;;;;;;5019482;28;20223;-37
2022/06/16 04:40:20;;;;;;;5.20;3.67;;;;;;;;;;5009651;28;20211;-34
2022/06/16 04:42:48;;;;;;;4.17;3.87;;;;;;;;;;5021097;28;20211;-35
2022/06/16 04:45:15;;;;;;;4.63;3.90;;;;;;;;;;5019350;28;20207;-35
2022/06/16 04:47:42;;;;;;;3.60;3.30;;;;;;;;;;5018977;28;20258;-38
2022/06/16 04:50:12;;;;;;;3.77;3.47;;;;;;;;;;5020240;28;20207;-36
2022/06/16 04:52:39;;;;;;;4.50;4.10;;;;;;;;;;5013570;28;20211;-32
2022/06/16 04:55:06;;;;;;;4.63;3.57;;;;;;;;;;5012476;28;20199;-36
2022/06/16 04:57:34;;;;;;;4.47;3.57;;;;;;;;;;5007800;28;20245;-36
2022/06/16 05:00:02;;;;;;;4.70;3.50;;;;;;;;;;5026289;28;20209;-32
2022/06/16 05:02:29;;;;;;;3.73;3.40;;;;;;;;;;5021703;28;20214;-33
2022/06/16 05:04:56;;;;;;;3.77;3.33;;;;;;;;;;5012853;28;20238;-36
2022/06/16 05:07:24;;;;;;;4.70;3.80;;;;;;;;;;5020518;28;20313;-33
2022/06/16 05:09:52;;;;;;;5.10;3.50;;;;;;;;;;5033308;28;20206;-34
2022/06/16 05:12:19;;;;;;;4.50;3.73;;;;;;;;;;5013518;28;20225;-36
2022/06/16 05:14:46;;;;;;;4.17;3.77;;;;;;;;;;5005981;28;20701;-39
2022/06/16 05:17:13;;;;;;;4.60;4.20;;;;;;;;;;5012197;28;20228;-35
2022/06/16 05:19:40;;;;;;;4.50;4.03;;;;;;;;;;5019242;28;20297;-37
2022/06/16 05:22:07;;;;;;;3.97;3.67;;;;;;;;;;5026411;28;20209;-36
2022/06/16 05:24:36;;;;;;;4.90;4.30;;;;;;;;;;5032633;28;20253;-38
2022/06/16 05:27:04;;;;;;;4.28;3.85;;;;;;;;;;5021327;28;20227;-37
2022/06/16 05:29:32;;;;;;;4.65;4.25;;;;;;;;;;5014951;28;20203;-34
2022/06/16 05:31:59;;;;;;;4.20;3.80;;;;;;;;;;4993091;28;20207;-38
2022/06/16 05:36:55;;;;;;;4.13;3.72;;;;;;;;;;5037999;28;20288;-38
2022/06/16 05:39:22;;;;;;;3.85;3.55;;;;;;;;;;5031138;28;20209;-37
2022/06/16 05:41:51;;;;;;;4.88;3.78;;;;;;;;;;5015258;28;20222;-33
2022/06/16 05:44:18;;;;;;;3.50;3.20;;;;;;;;;;5025572;28;20229;-33
2022/06/16 05:46:45;;;;;;;4.90;3.65;;;;;;;;;;5026789;28;20262;-39
2022/06/16 05:49:15;;;;;;;3.90;3.55;;;;;;;;;;5020685;28;20213;-33
2022/06/16 05:51:43;;;;;;;5.70;3.47;;;;;;;;;;5028275;28;20207;-34
2022/06/16 05:54:11;;;;;;;4.07;3.67;;;;;;;;;;5031661;28;20206;-38
2022/06/16 05:56:38;;;;;;;4.30;3.97;;;;;;;;;;5025563;28;20325;-35
2022/06/16 05:59:07;;;;;;;6.82;4.03;;;;;;;;;;5019471;28;20211;-33
2022/06/16 06:01:34;;;;;;;6.97;4.20;;;;;;;;;;5035337;28;20205;-37
2022/06/16 06:04:01;;;;;;;4.35;3.55;;;;;;;;;;5026580;28;20214;-35
2022/06/16 06:06:28;;;;;;;8.07;3.87;;;;;;;;;;5031661;28;20230;-38
2022/06/16 06:17:17;;;;;;;4.25;3.45;;;;;;;;;;5012670;28;20233;-38
2022/06/16 06:19:44;;;;;;;3.65;3.35;;;;;;;;;;5037130;28;20233;-34
2022/06/16 06:22:13;;;;;;;4.60;3.35;;;;;;;;;;5030281;28;20234;-33
2022/06/16 06:24:41;;;;;;;6.80;3.30;;;;;;;;;;5027979;28;20227;-38
2022/06/16 06:27:11;;;;;;;5.30;4.07;;;;;;;;;;5028948;28;20226;-37
2022/06/16 06:29:40;;;;;;;4.18;3.78;;;;;;;;;;5029871;28;20272;-38
2022/06/16 06:32:08;;;;;;;4.53;3.13;;;;;;;;;;5026772;28;20277;-37
2022/06/16 06:34:35;;;;;;;5.57;3.33;;;;;;;;;;5026683;28;20355;-38
2022/06/16 06:37:02;;;;;;;3.70;3.13;;;;;;;;;;5029722;28;20303;-34
2022/06/16 06:39:30;;;;;;;4.82;3.53;;;;;;;;;;5025587;28;20553;-34
2022/06/16 06:44:25;;;;;;;3.30;3.00;;;;;;;;;;5045305;28;20246;-37
2022/06/16 06:46:54;;;;;;;3.33;3.03;;;;;;;;;;5049296;28;20224;-39
2022/06/16 06:49:22;;;;;;;4.00;3.60;;;;;;;;;;5052740;28;20214;-43
2022/06/16 06:51:50;;;;;;;5.25;3.55;;;;;;;;;;5052746;28;20208;-42
2022/06/16 06:54:18;;;;;;;3.60;3.30;;;;;;;;;;5050643;28;20228;-44
2022/06/16 06:56:46;;;;;;;4.03;3.50;;;;;;;;;;5049492;28;20225;-45
2022/06/16 06:59:16;;;;;;;3.22;2.90;;;;;;;;;;5053421;28;20213;-43
2022/06/16 07:01:43;;;;;;;3.13;2.83;;;;;;;;;;5049483;28;20252;-39
2022/06/16 07:04:12;;;;;;;4.03;3.25;;;;;;;;;;5041273;28;20222;-45
2022/06/16 07:06:39;;;;;;;3.60;3.38;;;;;;;;;;5050905;28;20225;-42
2022/06/16 07:09:07;;;;;;;3.70;3.40;;;;;;;;;;5053758;28;20208;-44
2022/06/16 07:11:34;;;;;;;3.78;3.40;;;;;;;;;;5047906;28;20210;-42
2022/06/16 07:14:02;;;;;;;4.13;3.30;;;;;;;;;;5046770;28;20198;-42
2022/06/16 07:16:29;;;;;;;4.28;3.53;;;;;;;;;;5051225;28;20249;-40
2022/06/16 07:18:56;;;;;;;4.82;3.38;;;;;;;;;;5052068;28;20244;-38
2022/06/16 07:21:25;;;;;;;3.65;3.30;;;;;;;;;;5052876;28;20229;-41
2022/06/16 07:23:53;;;;;;;3.65;3.00;;;;;;;;;;5053027;28;20205;-40
2022/06/16 07:26:20;;;;;;;3.60;3.17;;;;;;;;;;5042534;28;20253;-43
2022/06/16 07:28:49;;;;;;;3.13;2.83;;;;;;;;;;5044236;28;20200;-41
2022/06/16 07:31:18;;;;;;;3.40;3.10;;;;;;;;;;5053405;28;20212;-43
2022/06/16 07:33:46;;;;;;;5.80;3.55;;;;;;;;;;5042904;28;20212;-42
2022/06/16 07:36:13;;;;;;;4.95;3.00;;;;;;;;;;5052654;28;20225;-42
2022/06/16 07:38:41;;;;;;;3.53;3.20;;;;;;;;;;5052924;28;20236;-41
2022/06/16 07:43:53;;;;;;;6.05;3.50;;;;;;;;;;5043196;28;20209;-43
2022/06/16 07:46:21;;;;;;;3.97;3.00;;;;;;;;;;5052202;28;20286;-43
2022/06/16 07:48:48;;;;;;;3.40;3.10;;;;;;;;;;5043719;28;20288;-39
2022/06/16 07:51:16;;;;;;;4.18;3.20;;;;;;;;;;5050630;28;20222;-44
2022/06/16 07:53:45;;;;;;;3.58;3.28;;;;;;;;;;5051691;28;20261;-43
2022/06/16 07:56:12;;;;;;;3.70;3.30;;;;;;;;;;5053214;28;20230;-42
2022/06/16 07:58:39;;;;;;;5.15;3.60;;;;;;;;;;5049772;28;20280;-42
2022/06/16 08:01:08;;;;;;;3.83;3.45;;;;;;;;;;5053464;28;20202;-41
2022/06/16 08:06:06;;;;;;;5.93;3.22;;;;;;;;;;5050377;28;20236;-42
2022/06/16 08:08:33;;;;;;;3.85;2.97;;;;;;;;;;5052089;28;20201;-37
2022/06/16 08:11:01;;;;;;;5.45;3.83;;;;;;;;;;5045701;28;20216;-34
2022/06/16 08:13:28;;;;;;;4.68;3.83;;;;;;;;;;5044475;28;20219;-34
2022/06/16 08:15:56;;;;;;;5.72;3.40;;;;;;;;;;5051635;28;20256;-38
2022/06/16 08:18:25;;;;;;;5.38;3.50;;;;;;;;;;5035250;28;20219;-34
2022/06/16 08:20:52;;;;;;;5.90;3.13;;;;;;;;;;5045161;28;20210;-32
2022/06/16 08:23:20;;;;;;;6.32;4.70;;;;;;;;;;5051366;28;20269;-35
2022/06/16 08:25:48;;;;;;;3.22;2.92;;;;;;;;;;5050948;28;20218;-36
2022/06/16 08:28:22;;;;;;;5.53;3.97;;;;;;;;;;5045709;28;20212;-34
2022/06/16 08:30:49;;;;;;;3.55;3.25;;;;;;;;;;5043721;28;20252;-35
2022/06/16 08:33:18;;;;;;;6.13;3.90;;;;;;;;;;5043816;28;20296;-38
2022/06/16 08:35:46;;;;;;;4.78;3.45;;;;;;;;;;5046584;28;20585;-36
2022/06/16 08:38:14;;;;;;;3.75;3.45;;;;;;;;;;5050596;28;20213;-38
2022/06/16 08:40:43;;;;;;;4.60;3.63;;;;;;;;;;5047600;28;20202;-36
2022/06/16 08:43:15;;;;;;;3.80;3.50;;;;;;;;;;5050742;28;20197;-40
2022/06/16 08:45:47;;;;;;;3.78;3.40;;;;;;;;;;5050780;28;20222;-40
2022/06/16 08:48:22;;;;;;;3.30;3.10;;;;;;;;;;5041281;28;20198;-39
2022/06/16 08:50:53;;;;;;;6.28;3.50;;;;;;;;;;5050474;28;20206;-33
2022/06/16 08:53:26;;;;;;;3.90;3.60;;;;;;;;;;5051126;28;20652;-35
2022/06/16 08:55:57;;;;;;;4.03;3.47;;;;;;;;;;5046986;28;20224;-39
2022/06/16 08:58:31;;;;;;;4.80;3.80;;;;;;;;;;5047671;28;20209;-36
2022/06/16 09:01:05;;;;;;;4.70;3.40;;;;;;;;;;5042668;28;20202;-35
2022/06/16 09:03:39;;;;;;;3.78;3.47;;;;;;;;;;5044088;28;20300;-39
2022/06/16 09:06:12;;;;;;;3.53;3.22;;;;;;;;;;5050029;28;20220;-36
2022/06/16 09:08:44;;;;;;;6.32;3.53;;;;;;;;;;5026944;28;20220;-34
2022/06/16 09:16:26;;;;;;;2.92;2.72;;;;;;;;;;5061947;28;20241;-38
2022/06/16 09:19:08;;;;;;;5.07;3.00;;;;;;;;;;5059964;28;20331;-35
2022/06/16 09:21:40;;;;;;;4.75;3.22;;;;;;;;;;5062872;28;20201;-38
2022/06/16 09:24:16;;;;;;;3.22;2.95;;;;;;;;;;5065596;28;20208;-35
2022/06/16 09:26:47;;;;;;;3.60;3.28;;;;;;;;;;5053577;28;20232;-36
2022/06/16 09:29:16;;;;;;;3.83;3.22;;;;;;;;;;5062214;28;20208;-36
2022/06/16 09:31:47;;;;;;;2.97;2.78;;;;;;;;;;5063718;28;20201;-32
2022/06/16 09:34:18;;;;;;;6.78;2.80;;;;;;;;;;5065225;28;20201;-34
2022/06/16 09:36:46;;;;;;;4.13;2.90;;;;;;;;;;5069149;28;20240;-36
2022/06/16 09:39:16;;;;;;;4.20;2.60;;;;;;;;;;5059722;28;20235;-37
2022/06/16 09:44:36;;;;;;;5.20;3.00;;;;;;;;;;5066536;28;20285;-32
2022/06/16 09:47:08;;;;;;;3.45;2.47;;;;;;;;;;5063623;28;20221;-38
2022/06/16 09:49:38;;;;;;;2.33;2.13;;;;;;;;;;5068112;28;20198;-32
2022/06/16 09:52:08;;;;;;;3.47;2.67;;;;;;;;;;5063563;28;20206;-37
2022/06/16 09:54:37;;;;;;;4.88;2.83;;;;;;;;;;5067935;28;20204;-34
2022/06/16 09:57:06;;;;;;;2.75;2.55;;;;;;;;;;5059957;28;20237;-35
2022/06/16 09:59:36;;;;;;;3.40;2.55;;;;;;;;;;5052229;28;20210;-36
2022/06/16 10:02:06;;;;;;;5.35;2.75;;;;;;;;;;5064048;28;20205;-32
2022/06/16 10:04:33;;;;;;;9.63;3.20;;;;;;;;;;5066168;28;20209;-34
2022/06/16 10:07:04;;;;;;;2.63;2.30;;;;;;;;;;5069640;28;20315;-36
2022/06/16 10:09:34;;;;;;;4.03;2.70;;;;;;;;;;5070354;28;20208;-39
2022/06/16 10:12:03;;;;;;;3.08;2.70;;;;;;;;;;5058690;28;20220;-36
2022/06/16 10:14:35;;;;;;;4.72;2.78;;;;;;;;;;5054517;28;20224;-40
2022/06/16 10:17:04;;;;;;;4.43;2.85;;;;;;;;;;5049216;28;20234;-35
2022/06/16 10:19:34;;;;;;;3.08;2.63;;;;;;;;;;5062283;28;20215;-38
2022/06/16 10:22:03;;;;;;;3.28;2.53;;;;;;;;;;5063144;28;20211;-37
2022/06/16 10:24:34;;;;;;;3.63;2.05;;;;;;;;;;5067223;28;20209;-32
2022/06/16 10:27:01;;;;;;;2.90;2.70;;;;;;;;;;5061136;28;20237;-35
2022/06/16 10:29:29;;;;;;;7.25;3.05;;;;;;;;;;5063143;28;20229;-40
2022/06/16 10:31:58;;;;;;;5.10;2.90;;;;;;;;;;5065622;28;20273;-38
2022/06/16 10:34:29;;;;;;;5.28;2.85;;;;;;;;;;5057216;28;20216;-39
2022/06/16 10:37:01;;;;;;;3.42;3.10;;;;;;;;;;5056515;28;20611;-38
2022/06/16 10:39:32;;;;;;;4.57;3.00;;;;;;;;;;5062254;28;20231;-37
2022/06/16 10:42:02;;;;;;;4.70;3.60;;;;;;;;;;5065492;28;20192;-37
2022/06/16 10:44:30;;;;;;;3.67;2.95;;;;;;;;;;5066597;28;20204;-37
2022/06/16 10:46:59;;;;;;;3.60;3.20;;;;;;;;;;5062565;28;20226;-40
2022/06/16 10:49:27;;;;;;;3.42;3.20;;;;;;;;;;5067829;28;20200;-37
2022/06/16 10:51:58;;;;;;;3.88;3.40;;;;;;;;;;5068924;28;20205;-35
2022/06/16 10:54:30;;;;;;;3.80;2.80;;;;;;;;;;5064335;28;20211;-39
2022/06/16 10:57:14;;;;;;;4.00;3.05;;;;;;;;;;5059347;28;20241;-41
2022/06/16 10:59:49;;;;;;;3.65;3.00;;;;;;;;;;5066566;28;20204;-37
2022/06/16 11:02:20;;;;;;;5.22;3.30;;;;;;;;;;5063857;28;20204;-33
2022/06/16 11:04:52;;;;;;;3.50;3.08;;;;;;;;;;5067715;28;20216;-36
2022/06/16 11:07:21;;;;;;;5.43;3.40;;;;;;;;;;5068281;28;20224;-37
2022/06/16 11:09:50;;;;;;;3.80;3.28;;;;;;;;;;5068181;28;20200;-36
2022/06/16 11:12:19;;;;;;;4.10;3.70;;;;;;;;;;5058642;28;20296;-33
2022/06/16 11:14:48;;;;;;;6.32;3.40;;;;;;;;;;5067385;28;20210;-33
2022/06/16 11:17:19;;;;;;;3.97;3.13;;;;;;;;;;5064930;28;20235;-34
2022/06/16 11:19:49;;;;;;;4.80;3.50;;;;;;;;;;5064307;28;20246;-37
2022/06/16 11:22:17;;;;;;;3.97;3.58;;;;;;;;;;5068861;28;20205;-38
2022/06/16 11:24:53;;;;;;;4.18;3.50;;;;;;;;;;5068803;28;20207;-35
2022/06/16 11:27:22;;;;;;;4.20;3.63;;;;;;;;;;5060677;28;20220;-34
2022/06/16 11:29:49;;;;;;;5.00;3.50;;;;;;;;;;5068581;28;20200;-29
2022/06/16 11:32:18;;;;;;;3.75;3.28;;;;;;;;;;5065607;28;20203;-34
2022/06/16 11:34:45;;;;;;;3.75;3.22;;;;;;;;;;5071743;28;20226;-32
2022/06/16 11:37:43;;;;;;;5.50;3.20;;;;;;;;;;5070336;28;20545;-34
2022/06/16 11:40:19;;;;;;;3.72;3.00;;;;;;;;;;5072706;28;20197;-38
2022/06/16 11:42:52;;;;;;;3.38;2.95;;;;;;;;;;5062710;28;20240;-39
2022/06/16 11:45:25;;;;;;;4.00;3.10;;;;;;;;;;5068622;28;20234;-33
2022/06/16 11:47:57;;;;;;;5.57;2.95;;;;;;;;;;5066527;28;20236;-36
2022/06/16 11:50:29;;;;;;;3.42;3.13;;;;;;;;;;5070872;28;20256;-37
2022/06/16 11:53:00;;;;;;;5.28;2.80;;;;;;;;;;5073198;28;20203;-36
2022/06/16 11:55:32;;;;;;;4.05;2.70;;;;;;;;;;5068472;28;20226;-34
2022/06/16 11:58:08;;;;;;;6.65;2.80;;;;;;;;;;5064834;28;20228;-39
2022/06/16 12:00:38;;;;;;;3.35;2.72;;;;;;;;;;5065612;28;20204;-37
2022/06/16 12:03:13;;;;;;;4.43;2.70;;;;;;;;;;5069608;28;20209;-36
2022/06/16 12:05:43;;;;;;;4.47;2.80;;;;;;;;;;5065822;28;20213;-35
2022/06/16 12:08:15;;;;;;;3.28;2.97;;;;;;;;;;5075066;28;20213;-36
2022/06/16 12:10:45;;;;;;;3.05;2.55;;;;;;;;;;5075134;28;20203;-35
2022/06/16 12:13:17;;;;;;;3.13;2.83;;;;;;;;;;5067662;28;20216;-38
2022/06/16 12:15:49;;;;;;;4.85;2.90;;;;;;;;;;5074058;28;20213;-40
2022/06/16 12:18:22;;;;;;;3.10;2.80;;;;;;;;;;5052515;23;20324;-91
2022/06/16 12:20:58;;;;;;;4.47;2.70;;;;;;;;;;5045217;28;20213;-91
2022/06/16 12:23:28;;;;;;;4.47;2.88;;;;;;;;;;5053620;28;20193;-92
2022/06/16 12:25:58;;;;;;;2.85;2.60;;;;;;;;;;5054155;28;20232;-92
2022/06/16 12:28:30;;;;;;;3.78;2.60;;;;;;;;;;5046376;28;20213;-91
2022/06/16 12:31:00;;;;;;;2.83;2.63;;;;;;;;;;5054009;28;20202;-92
2022/06/16 12:33:30;;;;;;;3.90;2.67;;;;;;;;;;5050560;28;20239;-92
2022/06/16 12:36:02;;;;;;;3.05;2.72;;;;;;;;;;5053666;28;20627;-92
2022/06/16 12:38:32;;;;;;;3.15;2.47;;;;;;;;;;5053672;28;20202;-92
2022/06/16 12:41:02;;;;;;;4.07;2.42;;;;;;;;;;5054132;28;20206;-92
2022/06/16 12:43:34;;;;;;;3.15;2.50;;;;;;;;;;5046389;28;20220;-92
2022/06/16 12:46:03;;;;;;;3.08;2.80;;;;;;;;;;5045990;28;20217;-93
2022/06/16 12:48:31;;;;;;;2.70;2.50;;;;;;;;;;5039864;28;20232;-92
2022/06/16 12:51:00;;;;;;;3.80;2.85;;;;;;;;;;5046033;28;20205;-92
2022/06/16 12:53:29;;;;;;;3.92;2.50;;;;;;;;;;5053240;28;20226;-91
2022/06/16 12:55:59;;;;;;;3.25;2.30;;;;;;;;;;5053914;28;20201;-92
2022/06/16 12:58:32;;;;;;;4.30;2.65;;;;;;;;;;5051283;28;20221;-92
2022/06/16 13:01:03;;;;;;;2.40;2.22;;;;;;;;;;5045306;28;20667;-92
2022/06/16 13:03:33;;;;;;;3.13;2.63;;;;;;;;;;5048667;28;20223;-91
2022/06/16 13:06:01;;;;;;;2.15;2.03;;;;;;;;;;5045467;28;20224;-92
2022/06/16 13:08:31;;;;;;;5.80;2.88;;;;;;;;;;5053150;28;20202;-92
2022/06/16 13:11:00;;;;;;;2.50;2.30;;;;;;;;;;5048562;28;20237;-92
2022/06/16 13:13:30;;;;;;;4.90;2.10;;;;;;;;;;5051073;28;20206;-92
2022/06/16 13:16:01;;;;;;;4.40;2.38;;;;;;;;;;5044860;28;20200;-93
2022/06/16 13:18:32;;;;;;;3.35;2.45;;;;;;;;;;5044182;28;20255;-91
2022/06/16 13:21:01;;;;;;;2.55;2.35;;;;;;;;;;5045157;28;20201;-92
2022/06/16 13:23:33;;;;;;;3.67;2.30;;;;;;;;;;5053147;28;20208;-92
2022/06/16 13:26:18;;;;;;;2.53;2.20;;;;;;;;;;5046644;28;20224;-90
2022/06/16 13:28:52;;;;;;;3.00;2.35;;;;;;;;;;5051179;28;20224;-92
2022/06/16 13:31:24;;;;;;;3.10;2.30;;;;;;;;;;5053499;28;20197;-92
2022/06/16 13:34:10;;;;;;;3.60;2.47;;;;;;;;;;5046983;28;20301;-92
2022/06/16 13:36:48;;;;;;;3.13;2.60;;;;;;;;;;5052533;28;20202;-91
2022/06/16 13:39:30;;;;;;;5.93;2.38;;;;;;;;;;5053269;28;20728;-92
2022/06/16 13:42:06;;;;;;;2.67;2.40;;;;;;;;;;5046717;28;20325;-93
2022/06/16 13:44:33;;;;;;;4.20;2.40;;;;;;;;;;5049151;28;20695;-94
2022/06/16 13:47:15;;;;;;;3.45;2.10;;;;;;;;;;5048947;28;20226;-94
2022/06/16 13:49:56;;;;;;;2.90;2.58;;;;;;;;;;5052469;28;20209;-93
2022/06/16 13:52:28;;;;;;;2.53;2.20;;;;;;;;;;5053149;28;20288;-92
2022/06/16 13:55:11;;;;;;;3.63;2.10;;;;;;;;;;5052144;28;20225;-92
2022/06/16 13:57:38;;;;;;;3.17;2.28;;;;;;;;;;5047069;28;20201;-93
2022/06/16 14:00:08;;;;;;;3.63;2.40;;;;;;;;;;5052320;28;20208;-92
2022/06/16 14:02:53;;;;;;;4.70;2.50;;;;;;;;;;5045796;28;20540;-93
2022/06/16 14:05:25;;;;;;;2.35;1.90;;;;;;;;;;5052608;28;20289;-92
2022/06/16 14:07:56;;;;;;;3.20;2.20;;;;;;;;;;5215873;22;20204;-36
2022/06/16 14:10:25;;;;;;;3.40;2.38;;;;;;;;;;5051611;28;20202;-33
2022/06/16 14:13:08;;;;;;;2.65;2.35;;;;;;;;;;5039846;28;20289;-34
2022/06/16 14:15:54;;;;;;;2.95;2.20;;;;;;;;;;5050504;28;20209;-39
2022/06/16 14:18:23;;;;;;;2.45;2.25;;;;;;;;;;5055499;28;20208;-41
2022/06/16 14:20:52;;;;;;;2.17;1.73;;;;;;;;;;5051357;28;20644;-36
2022/06/16 14:23:22;;;;;;;3.42;2.42;;;;;;;;;;5066116;28;20192;-37
2022/06/16 14:25:52;;;;;;;3.05;2.22;;;;;;;;;;5062670;28;20207;-37
2022/06/16 14:28:23;;;;;;;2.22;2.13;;;;;;;;;;5050210;28;20205;-37
2022/06/16 14:30:52;;;;;;;6.85;2.25;;;;;;;;;;5061887;28;20197;-40
2022/06/16 14:33:22;;;;;;;2.05;1.83;;;;;;;;;;5042714;28;20403;-40
2022/06/16 14:35:52;;;;;;;4.22;2.00;;;;;;;;;;5054031;28;20295;-31
2022/06/16 14:38:23;;;;;;;5.97;2.28;;;;;;;;;;5071676;28;20212;-36
2022/06/16 14:40:54;;;;;;;3.22;2.17;;;;;;;;;;5048343;28;20206;-37
2022/06/16 14:43:22;;;;;;;2.40;2.20;;;;;;;;;;5059314;28;20237;-35
2022/06/16 14:45:52;;;;;;;2.95;2.30;;;;;;;;;;5051805;28;20209;-35
2022/06/16 14:48:22;;;;;;;2.78;2.10;;;;;;;;;;5053123;28;20205;-35
2022/06/16 14:50:51;;;;;;;3.75;2.45;;;;;;;;;;5046717;28;20209;-38
2022/06/16 14:53:21;;;;;;;2.20;1.95;;;;;;;;;;5071508;28;20194;-39
2022/06/16 14:55:51;;;;;;;4.15;2.28;;;;;;;;;;5045964;28;20679;-38
2022/06/16 14:58:19;;;;;;;2.58;2.20;;;;;;;;;;5062740;28;20589;-36
2022/06/16 15:00:47;;;;;;;2.17;2.00;;;;;;;;;;5054412;28;20209;-39
2022/06/16 15:03:16;;;;;;;3.97;2.38;;;;;;;;;;5049799;28;20209;-37
2022/06/16 15:05:44;;;;;;;2.30;1.70;;;;;;;;;;5054857;28;20227;-34
2022/06/16 15:08:17;;;;;;;2.85;2.30;;;;;;;;;;5065608;28;20239;-37
2022/06/16 15:10:44;;;;;;;2.67;2.25;;;;;;;;;;5056103;28;20197;-33
2022/06/16 15:13:13;;;;;;;3.17;2.33;;;;;;;;;;5051573;28;20201;-39
2022/06/16 15:15:41;;;;;;;3.58;2.30;;;;;;;;;;5060040;28;20201;-42
2022/06/16 15:18:13;;;;;;;2.88;1.90;;;;;;;;;;5049690;28;20202;-39
2022/06/16 15:20:42;;;;;;;6.20;2.13;;;;;;;;;;5054582;28;20213;-42
2022/06/16 15:23:09;;;;;;;2.25;2.05;;;;;;;;;;5054164;28;20202;-39
2022/06/16 15:25:39;;;;;;;2.30;2.10;;;;;;;;;;5053136;28;20245;-35
2022/06/16 15:28:18;;;;;;;2.35;2.10;;;;;;;;;;5045337;28;20275;-39
2022/06/16 15:30:45;;;;;;;4.40;2.17;;;;;;;;;;5063770;28;20209;-41
2022/06/16 15:36:10;;;;;;;3.17;2.70;;;;;;;;;;5047139;28;20225;-37